createdAt,value
2022-10-02T00:01:47.370Z,84.52
2022-10-02T00:04:20.771Z,84.62
2022-10-02T00:06:51.281Z,84.55
2022-10-02T00:09:29.101Z,84.63
2022-10-02T00:12:01.404Z,84.71
2022-10-02T00:14:33.872Z,85.32
2022-10-02T00:17:02.700Z,85.00
2022-10-02T00:19:30.778Z,84.97
2022-10-02T00:22:13.294Z,85.09
2022-10-02T00:24:44.983Z,85.32
2022-10-02T00:27:30.869Z,85.09
2022-10-02T00:30:02.009Z,84.70
2022-10-02T00:32:36.422Z,85.16
2022-10-02T00:35:42.732Z,85.13
2022-10-02T00:38:23.981Z,85.09
2022-10-02T00:41:17.768Z,85.11
2022-10-02T00:44:08.338Z,84.75
2022-10-02T00:46:46.603Z,85.15
2022-10-02T00:49:37.259Z,84.73
2022-10-02T00:52:18.520Z,84.91
2022-10-02T00:55:01.596Z,84.98
2022-10-02T00:57:44.264Z,85.04
2022-10-02T01:00:16.506Z,85.08
2022-10-02T01:02:54.043Z,85.50
2022-10-02T01:05:22.540Z,85.23
2022-10-02T01:07:54.084Z,85.27
2022-10-02T01:10:23.452Z,85.20
2022-10-02T01:12:51.668Z,85.19
2022-10-02T01:15:23.039Z,85.01
2022-10-02T01:17:53.121Z,85.03
2022-10-02T01:20:24.948Z,85.27
2022-10-02T01:23:02.533Z,85.22
2022-10-02T01:25:32.303Z,85.37
2022-10-02T01:28:00.865Z,85.50
2022-10-02T01:30:30.958Z,85.32
2022-10-02T01:33:01.716Z,85.34
2022-10-02T01:35:32.793Z,85.35
2022-10-02T01:38:03.501Z,85.28
2022-10-02T01:40:35.329Z,85.20
2022-10-02T01:43:06.794Z,85.51
2022-10-02T01:45:46.051Z,85.51
2022-10-02T01:48:18.884Z,85.41
2022-10-02T01:51:01.132Z,85.33
2022-10-02T01:53:38.930Z,85.35
2022-10-02T01:56:16.598Z,85.65
2022-10-02T01:58:54.447Z,85.58
2022-10-02T02:01:34.007Z,85.76
2022-10-02T02:04:08.346Z,85.59
2022-10-02T02:06:47.340Z,85.50
2022-10-02T02:09:20.865Z,85.52
2022-10-02T02:11:56.249Z,85.39
2022-10-02T02:14:29.341Z,85.23
2022-10-02T02:17:03.608Z,85.14
2022-10-02T02:19:37.293Z,85.02
2022-10-02T02:22:10.027Z,84.96
2022-10-02T02:24:42.129Z,85.12
2022-10-02T02:27:16.807Z,84.80
2022-10-02T02:29:47.571Z,84.78
2022-10-02T02:32:21.800Z,84.86
2022-10-02T02:34:56.217Z,84.80
2022-10-02T02:37:29.081Z,85.02
2022-10-02T02:40:01.254Z,85.06
2022-10-02T02:42:33.122Z,85.09
2022-10-02T02:45:05.721Z,85.34
2022-10-02T02:47:40.300Z,85.10
2022-10-02T02:50:13.630Z,85.28
2022-10-02T02:52:48.958Z,85.46
2022-10-02T02:55:21.256Z,85.33
2022-10-02T02:57:53.373Z,86.00
2022-10-02T03:00:22.973Z,85.75
2022-10-02T03:02:54.628Z,85.63
2022-10-02T03:05:24.935Z,85.54
2022-10-02T03:07:55.634Z,85.46
2022-10-02T03:10:40.843Z,85.60
2022-10-02T03:13:22.591Z,85.62
2022-10-02T03:16:04.371Z,85.44
2022-10-02T03:18:44.247Z,85.72
2022-10-02T03:21:16.786Z,85.52
2022-10-02T03:23:58.437Z,85.48
2022-10-02T03:26:36.298Z,85.88
2022-10-02T03:29:12.904Z,85.91
2022-10-02T03:31:42.396Z,85.81
2022-10-02T03:34:10.577Z,85.58
2022-10-02T03:36:39.226Z,85.53
2022-10-02T03:39:25.717Z,85.63
2022-10-02T03:41:55.075Z,85.91
2022-10-02T03:44:24.803Z,85.57
2022-10-02T03:46:53.005Z,85.61
2022-10-02T03:49:21.112Z,85.82
2022-10-02T03:51:49.290Z,85.68
2022-10-02T03:54:18.937Z,85.68
2022-10-02T03:56:55.540Z,85.73
2022-10-02T03:59:35.277Z,85.51
2022-10-02T04:02:08.700Z,85.69
2022-10-02T04:04:46.170Z,85.79
2022-10-02T04:07:20.459Z,85.64
2022-10-02T04:09:55.344Z,85.57
2022-10-02T04:12:30.282Z,85.69
2022-10-02T04:15:05.075Z,85.83
2022-10-02T04:17:44.315Z,85.80
2022-10-02T04:20:18.103Z,85.81
2022-10-02T04:22:52.918Z,85.72
2022-10-02T04:25:24.099Z,85.89
2022-10-02T04:27:55.622Z,85.80
2022-10-02T04:30:26.404Z,85.81
2022-10-02T04:32:55.388Z,85.97
2022-10-02T04:35:34.186Z,85.63
2022-10-02T04:38:27.824Z,85.58
2022-10-02T04:41:14.100Z,85.44
2022-10-02T04:43:54.585Z,85.49
2022-10-02T04:46:44.205Z,85.19
2022-10-02T04:49:40.063Z,85.68
2022-10-02T04:52:25.441Z,85.38
2022-10-02T04:55:23.187Z,85.34
2022-10-02T04:58:06.019Z,85.27
2022-10-02T05:00:41.886Z,85.13
2022-10-02T05:03:25.796Z,85.19
2022-10-02T05:06:07.200Z,85.23
2022-10-02T05:08:58.795Z,84.89
2022-10-02T05:11:45.547Z,85.19
2022-10-02T05:14:32.817Z,85.18
2022-10-02T05:17:16.484Z,85.29
2022-10-02T05:20:00.416Z,85.26
2022-10-02T05:22:53.283Z,85.00
2022-10-02T05:25:55.667Z,85.02
2022-10-02T05:28:55.027Z,85.29
2022-10-02T05:31:34.678Z,85.14
2022-10-02T05:34:22.965Z,85.27
2022-10-02T05:37:06.742Z,85.04
2022-10-02T05:39:37.586Z,85.27
2022-10-02T05:42:19.555Z,85.36
2022-10-02T05:44:53.771Z,85.35
2022-10-02T05:47:29.799Z,85.35
2022-10-02T05:50:01.060Z,85.35
2022-10-02T05:52:37.291Z,85.28
2022-10-02T05:55:15.892Z,85.49
2022-10-02T05:57:47.390Z,85.78
2022-10-02T06:00:25.878Z,85.15
2022-10-02T06:03:02.562Z,85.14
2022-10-02T06:05:56.371Z,85.21
2022-10-02T06:08:36.260Z,84.97
2022-10-02T06:11:09.782Z,84.78
2022-10-02T06:13:43.957Z,84.79
2022-10-02T06:16:18.761Z,84.70
2022-10-02T06:18:52.487Z,84.64
2022-10-02T06:21:29.559Z,84.66
2022-10-02T06:24:04.609Z,84.75
2022-10-02T06:26:41.108Z,84.71
2022-10-02T06:29:20.617Z,84.81
2022-10-02T06:32:07.716Z,84.94
2022-10-02T06:34:35.843Z,85.15
2022-10-02T06:37:20.853Z,84.95
2022-10-02T06:40:21.910Z,84.92
2022-10-02T06:43:01.212Z,85.47
2022-10-02T06:45:42.640Z,85.29
2022-10-02T06:48:25.380Z,85.00
2022-10-02T06:51:03.750Z,84.90
2022-10-02T06:53:46.625Z,84.97
2022-10-02T06:56:34.844Z,84.81
2022-10-02T06:59:17.870Z,85.17
2022-10-02T07:01:58.787Z,85.22
2022-10-02T07:04:42.294Z,85.33
2022-10-02T07:07:32.415Z,85.30
2022-10-02T07:10:15.369Z,85.66
2022-10-02T07:13:07.765Z,85.70
2022-10-02T07:16:18.175Z,86.29
2022-10-02T07:19:03.982Z,85.76
2022-10-02T07:21:41.121Z,85.94
2022-10-02T07:24:31.165Z,85.35
2022-10-02T07:27:10.641Z,85.71
2022-10-02T07:29:51.159Z,85.73
2022-10-02T07:32:40.113Z,85.50
2022-10-02T07:35:20.725Z,85.47
2022-10-02T07:37:58.658Z,85.65
2022-10-02T07:40:37.641Z,85.32
2022-10-02T07:43:24.744Z,85.22
2022-10-02T07:46:09.554Z,84.84
2022-10-02T07:48:49.300Z,84.91
2022-10-02T07:51:50.098Z,84.88
2022-10-02T07:54:53.842Z,84.57
2022-10-02T07:57:30.220Z,84.34
2022-10-02T08:00:05.758Z,84.33
2022-10-02T08:02:49.118Z,84.61
2022-10-02T08:05:23.393Z,84.17
2022-10-02T08:07:57.572Z,83.81
2022-10-02T08:10:30.036Z,84.08
2022-10-02T08:13:07.241Z,83.86
2022-10-02T08:15:38.683Z,83.57
2022-10-02T08:18:34.304Z,83.43
2022-10-02T08:21:05.382Z,83.65
2022-10-02T08:23:40.804Z,83.47
2022-10-02T08:26:15.711Z,83.48
2022-10-02T08:28:50.248Z,83.58
2022-10-02T08:31:18.846Z,83.36
2022-10-02T08:33:48.543Z,83.52
2022-10-02T08:36:40.436Z,83.56
2022-10-02T08:39:29.060Z,83.30
2022-10-02T08:42:20.397Z,83.28
2022-10-02T08:45:26.820Z,83.29
2022-10-02T08:48:33.879Z,83.74
2022-10-02T08:51:39.996Z,83.93
2022-10-02T08:54:45.380Z,83.82
2022-10-02T08:57:32.475Z,83.92
2022-10-02T09:00:20.828Z,83.70
2022-10-02T09:03:41.322Z,83.74
2022-10-02T09:07:00.746Z,83.77
2022-10-02T09:09:58.998Z,84.03
2022-10-02T09:13:00.014Z,84.54
2022-10-02T09:15:44.494Z,84.85
2022-10-02T09:18:30.264Z,85.24
2022-10-02T09:21:19.553Z,85.59
2022-10-02T09:24:43.288Z,85.72
2022-10-02T09:28:04.254Z,85.96
2022-10-02T09:31:06.631Z,85.97
2022-10-02T09:34:18.232Z,86.24
2022-10-02T09:37:17.572Z,86.33
2022-10-02T09:40:23.222Z,85.77
2022-10-02T09:43:31.230Z,85.57
2022-10-02T09:46:22.431Z,85.52
2022-10-02T09:49:26.419Z,85.17
2022-10-02T09:52:28.070Z,84.37
2022-10-02T09:55:10.948Z,84.90
2022-10-02T09:58:12.905Z,83.37
2022-10-02T10:01:28.671Z,80.58
2022-10-02T10:04:21.165Z,79.48
2022-10-02T10:07:21.821Z,77.35
2022-10-02T10:10:22.191Z,75.41
2022-10-02T10:13:26.558Z,72.71
2022-10-02T10:16:31.973Z,67.37
2022-10-02T10:19:46.928Z,65.44
2022-10-02T10:22:46.661Z,62.91
2022-10-02T10:25:50.759Z,62.81
2022-10-02T10:28:47.878Z,62.68
2022-10-02T10:31:56.295Z,63.70
2022-10-02T10:35:03.168Z,64.07
2022-10-02T10:38:16.558Z,64.41
2022-10-02T10:41:26.143Z,63.68
2022-10-02T10:44:18.384Z,65.34
2022-10-02T10:47:20.216Z,64.72
2022-10-02T10:50:35.174Z,65.31
2022-10-02T10:53:24.474Z,66.64
2022-10-02T10:56:30.058Z,67.69
2022-10-02T10:59:31.011Z,67.35
2022-10-02T11:02:26.367Z,67.48
2022-10-02T11:05:08.379Z,66.81
2022-10-02T11:07:50.519Z,67.21
2022-10-02T11:10:38.057Z,67.19
2022-10-02T11:13:27.013Z,67.35
2022-10-02T11:16:23.669Z,68.24
2022-10-02T11:19:27.801Z,69.31
2022-10-02T11:22:34.351Z,70.98
2022-10-02T11:25:28.897Z,70.76
2022-10-02T11:28:38.500Z,71.33
2022-10-02T11:31:28.672Z,72.41
2022-10-02T11:34:33.637Z,72.24
2022-10-02T11:37:15.873Z,72.88
2022-10-02T11:40:09.640Z,73.22
2022-10-02T11:43:03.207Z,73.13
2022-10-02T11:45:59.251Z,73.60
2022-10-02T11:49:03.515Z,73.59
2022-10-02T11:51:58.372Z,74.22
2022-10-02T11:54:58.756Z,74.22
2022-10-02T11:57:42.377Z,74.99
2022-10-02T12:00:33.781Z,74.26
2022-10-02T12:03:06.075Z,74.22
2022-10-02T12:05:55.866Z,74.73
2022-10-02T12:08:34.493Z,73.98
2022-10-02T12:11:14.205Z,74.50
2022-10-02T12:14:13.665Z,75.06
2022-10-02T12:16:53.609Z,74.90
2022-10-02T12:19:36.592Z,75.32
2022-10-02T12:22:48.146Z,75.22
2022-10-02T12:25:43.896Z,75.81
2022-10-02T12:28:21.637Z,76.17
2022-10-02T12:31:01.363Z,76.34
2022-10-02T12:33:38.340Z,76.84
2022-10-02T12:36:24.915Z,77.29
2022-10-02T12:39:08.278Z,77.01
2022-10-02T12:42:07.719Z,76.82
2022-10-02T12:45:12.229Z,77.19
2022-10-02T12:48:08.395Z,77.34
2022-10-02T12:50:55.228Z,78.04
2022-10-02T12:54:10.244Z,78.61
2022-10-02T12:57:41.077Z,78.81
2022-10-02T13:00:16.521Z,79.32
2022-10-02T13:03:22.956Z,79.23
2022-10-02T13:06:20.308Z,79.58
2022-10-02T13:09:03.171Z,79.25
2022-10-02T13:11:45.725Z,79.46
2022-10-02T13:14:18.838Z,80.29
2022-10-02T13:17:10.049Z,79.54
2022-10-02T13:19:49.679Z,79.43
2022-10-02T13:22:25.127Z,79.96
2022-10-02T13:25:04.333Z,79.79
2022-10-02T13:27:41.652Z,79.76
2022-10-02T13:30:16.870Z,79.73
2022-10-02T13:33:08.400Z,79.70
2022-10-02T13:36:13.019Z,79.39
2022-10-02T13:39:04.318Z,79.57
2022-10-02T13:41:48.208Z,79.31
2022-10-02T13:44:28.619Z,79.63
2022-10-02T13:47:23.348Z,79.21
2022-10-02T13:50:17.502Z,79.44
2022-10-02T13:52:59.913Z,79.45
2022-10-02T13:55:30.269Z,79.46
2022-10-02T13:58:27.885Z,79.51
2022-10-02T14:01:05.193Z,79.86
2022-10-02T14:04:05.273Z,79.96
2022-10-02T14:06:40.107Z,80.00
2022-10-02T14:09:29.956Z,79.84
2022-10-02T14:12:21.317Z,79.89
2022-10-02T14:15:14.295Z,79.49
2022-10-02T14:17:57.683Z,79.60
2022-10-02T14:20:36.928Z,79.75
2022-10-02T14:23:24.785Z,79.58
2022-10-02T14:26:06.507Z,80.00
2022-10-02T14:28:57.615Z,79.74
2022-10-02T14:31:55.362Z,79.84
2022-10-02T14:34:41.832Z,79.18
2022-10-02T14:37:37.971Z,79.86
2022-10-02T14:40:14.282Z,79.55
2022-10-02T14:43:08.455Z,79.25
2022-10-02T14:45:58.652Z,79.52
2022-10-02T14:48:57.617Z,79.68
2022-10-02T14:51:39.194Z,79.67
2022-10-02T14:54:23.282Z,79.76
2022-10-02T14:57:19.604Z,79.60
2022-10-02T15:00:05.330Z,79.01
2022-10-02T15:03:20.174Z,78.55
2022-10-02T15:06:01.154Z,78.56
2022-10-02T15:08:35.317Z,78.09
2022-10-02T15:11:06.446Z,78.34
2022-10-02T15:13:41.951Z,78.15
2022-10-02T15:16:34.349Z,77.75
2022-10-02T15:19:10.947Z,77.42
2022-10-02T15:21:48.444Z,77.62
2022-10-02T15:24:31.600Z,77.60
2022-10-02T15:27:20.745Z,77.83
2022-10-02T15:30:04.059Z,78.18
2022-10-02T15:32:45.091Z,78.16
2022-10-02T15:35:35.830Z,78.05
2022-10-02T15:38:26.158Z,77.99
2022-10-02T15:41:21.620Z,77.83
2022-10-02T15:44:06.959Z,78.16
2022-10-02T15:46:50.905Z,78.10
2022-10-02T15:49:36.712Z,77.87
2022-10-02T15:52:15.979Z,78.41
2022-10-02T15:54:58.063Z,78.42
2022-10-02T15:57:47.650Z,78.43
2022-10-02T16:00:18.080Z,78.78
2022-10-02T16:03:01.067Z,78.78
2022-10-02T16:05:44.090Z,78.77
2022-10-02T16:08:56.978Z,78.62
2022-10-02T16:11:53.440Z,78.83
2022-10-02T16:14:35.754Z,78.73
2022-10-02T16:17:52.231Z,78.73
2022-10-02T16:20:49.191Z,79.01
2022-10-02T16:23:39.090Z,78.48
2022-10-02T16:26:21.354Z,78.58
2022-10-02T16:28:57.684Z,78.08
2022-10-02T16:31:47.896Z,77.94
2022-10-02T16:34:38.944Z,78.05
2022-10-02T16:37:19.252Z,77.63
2022-10-02T16:40:01.025Z,77.20
2022-10-02T16:42:52.486Z,77.09
2022-10-02T16:45:38.449Z,76.86
2022-10-02T16:48:13.764Z,77.08
2022-10-02T16:51:09.057Z,76.83
2022-10-02T16:53:46.358Z,76.43
2022-10-02T16:56:20.234Z,76.04
2022-10-02T16:59:01.150Z,75.91
2022-10-02T17:01:36.028Z,75.80
2022-10-02T17:04:19.717Z,75.64
2022-10-02T17:06:51.433Z,75.88
2022-10-02T17:09:34.371Z,75.52
2022-10-02T17:12:11.162Z,75.79
2022-10-02T17:14:46.801Z,75.73
2022-10-02T17:17:22.991Z,75.55
2022-10-02T17:19:55.241Z,75.72
2022-10-02T17:22:33.209Z,75.77
2022-10-02T17:25:19.491Z,75.45
2022-10-02T17:27:54.107Z,75.62
2022-10-02T17:30:27.079Z,75.58
2022-10-02T17:33:07.907Z,75.86
2022-10-02T17:35:48.290Z,75.78
2022-10-02T17:38:42.846Z,75.76
2022-10-02T17:41:26.955Z,75.81
2022-10-02T17:44:04.608Z,75.90
2022-10-02T17:46:53.538Z,75.99
2022-10-02T17:49:33.089Z,76.02
2022-10-02T17:52:31.321Z,75.93
2022-10-02T17:55:26.670Z,76.20
2022-10-02T17:58:13.935Z,75.97
2022-10-02T18:00:57.894Z,75.82
2022-10-02T18:03:49.062Z,75.79
2022-10-02T18:06:26.952Z,76.12
2022-10-02T18:09:05.354Z,75.70
2022-10-02T18:11:50.028Z,76.04
2022-10-02T18:14:32.354Z,76.17
2022-10-02T18:17:16.402Z,76.17
2022-10-02T18:19:56.605Z,76.32
2022-10-02T18:22:35.664Z,76.46
2022-10-02T18:25:29.915Z,76.42
2022-10-02T18:28:24.453Z,76.57
2022-10-02T18:31:10.483Z,76.83
2022-10-02T18:33:58.363Z,77.11
2022-10-02T18:36:40.783Z,77.31
2022-10-02T18:39:17.435Z,77.38
2022-10-02T18:41:57.997Z,77.73
2022-10-02T18:44:46.939Z,77.86
2022-10-02T18:47:34.339Z,77.79
2022-10-02T18:50:24.720Z,78.31
2022-10-02T18:53:00.656Z,78.08
2022-10-02T18:55:54.758Z,78.13
2022-10-02T18:58:33.718Z,78.22
2022-10-02T19:01:18.985Z,78.73
2022-10-02T19:04:13.375Z,78.51
2022-10-02T19:06:50.565Z,78.46
2022-10-02T19:09:25.645Z,78.26
2022-10-02T19:11:58.769Z,78.27
2022-10-02T19:14:35.025Z,78.52
2022-10-02T19:17:05.888Z,78.59
2022-10-02T19:19:36.980Z,78.64
2022-10-02T19:22:14.985Z,78.76
2022-10-02T19:24:45.678Z,78.82
2022-10-02T19:27:20.683Z,79.00
2022-10-02T19:29:55.970Z,79.00
2022-10-02T19:32:29.054Z,79.17
2022-10-02T19:35:06.394Z,79.16
2022-10-02T19:37:41.549Z,79.39
2022-10-02T19:40:16.800Z,79.44
2022-10-02T19:42:49.575Z,79.52
2022-10-02T19:45:25.486Z,79.47
2022-10-02T19:47:58.261Z,79.67
2022-10-02T19:50:41.726Z,79.93
2022-10-02T19:53:23.519Z,79.92
2022-10-02T19:55:55.783Z,80.02
2022-10-02T19:58:27.264Z,80.16
2022-10-02T20:00:57.787Z,80.02
2022-10-02T20:03:27.406Z,80.26
2022-10-02T20:06:01.079Z,80.39
2022-10-02T20:08:36.440Z,80.15
2022-10-02T20:11:10.501Z,80.38
2022-10-02T20:13:43.407Z,80.37
2022-10-02T20:16:35.090Z,80.29
2022-10-02T20:19:04.205Z,80.51
2022-10-02T20:21:40.755Z,80.47
2022-10-02T20:24:16.580Z,80.60
2022-10-02T20:26:47.817Z,80.66
2022-10-02T20:29:19.766Z,80.66
2022-10-02T20:31:53.071Z,80.57
2022-10-02T20:34:27.817Z,80.36
2022-10-02T20:37:05.399Z,80.26
2022-10-02T20:39:38.308Z,80.35
2022-10-02T20:42:14.817Z,80.06
2022-10-02T20:44:43.301Z,80.35
2022-10-02T20:47:44.832Z,79.90
2022-10-02T20:50:28.131Z,80.11
2022-10-02T20:53:32.969Z,80.00
2022-10-02T20:56:08.974Z,80.45
2022-10-02T20:59:14.849Z,80.28
2022-10-02T21:01:54.627Z,80.01
2022-10-02T21:04:46.963Z,80.04
2022-10-02T21:07:41.803Z,80.03
2022-10-02T21:10:54.515Z,80.23
2022-10-02T21:14:09.696Z,80.31
2022-10-02T21:17:08.567Z,80.38
2022-10-02T21:20:00.329Z,80.25
2022-10-02T21:23:01.111Z,80.09
2022-10-02T21:26:02.551Z,80.16
2022-10-02T21:29:06.063Z,80.26
2022-10-02T21:31:52.743Z,80.07
2022-10-02T21:34:36.613Z,80.30
2022-10-02T21:37:17.968Z,80.38
2022-10-02T21:40:42.585Z,80.61
2022-10-02T21:43:43.457Z,80.80
2022-10-02T21:46:46.987Z,80.88
2022-10-02T21:49:53.976Z,80.90
2022-10-02T21:52:49.126Z,80.87
2022-10-02T21:55:53.103Z,80.99
2022-10-02T21:58:55.616Z,81.12
2022-10-02T22:02:08.282Z,81.28
2022-10-02T22:05:05.135Z,81.29
2022-10-02T22:07:40.508Z,81.08
2022-10-02T22:10:17.779Z,81.07
2022-10-02T22:12:58.509Z,81.12
2022-10-02T22:15:37.260Z,81.16
2022-10-02T22:18:14.774Z,81.29
2022-10-02T22:21:00.296Z,80.98
2022-10-02T22:23:42.548Z,81.27
2022-10-02T22:26:35.055Z,81.32
2022-10-02T22:29:13.161Z,81.43
2022-10-02T22:31:53.372Z,81.22
2022-10-02T22:34:37.245Z,81.53
2022-10-02T22:37:28.447Z,81.41
2022-10-02T22:40:06.180Z,81.48
2022-10-02T22:42:40.689Z,81.63
2022-10-02T22:45:18.141Z,81.58
2022-10-02T22:47:54.063Z,81.47
2022-10-02T22:50:28.551Z,81.70
2022-10-02T22:53:08.348Z,81.75
2022-10-02T22:55:45.892Z,81.88
2022-10-02T22:58:20.015Z,81.83
2022-10-02T23:00:58.681Z,82.06
2022-10-02T23:03:34.620Z,82.49
2022-10-02T23:06:05.909Z,82.44
2022-10-02T23:08:44.230Z,82.48
2022-10-02T23:11:18.063Z,82.59
2022-10-02T23:13:51.370Z,82.96
2022-10-02T23:16:26.463Z,82.69
2022-10-02T23:18:59.749Z,82.45
2022-10-02T23:21:46.197Z,82.45
2022-10-02T23:24:26.713Z,82.30
2022-10-02T23:27:06.683Z,82.33
2022-10-02T23:29:45.003Z,82.43
2022-10-02T23:32:24.268Z,82.39
2022-10-02T23:35:01.057Z,82.21
2022-10-02T23:37:39.478Z,82.13
2022-10-02T23:40:20.873Z,82.24
2022-10-02T23:42:52.578Z,81.97
2022-10-02T23:45:26.937Z,82.26
2022-10-02T23:48:00.568Z,82.31
2022-10-02T23:50:37.238Z,82.25
2022-10-02T23:53:22.811Z,82.24
2022-10-02T23:56:09.233Z,82.12
2022-10-02T23:58:50.842Z,82.23
